Time;durP1;ratioP1;P1;durP2;ratioP2;P2;SDS_P1;SDS_P2;PMS_P1;PMS_P2;Temp;Humidity;BMP_temperature;BMP_pressure;BME280_temperature;BME280_humidity;BME280_pressure;Samples;Min_cycle;Max_cycle;Signal;HPM_P1;HPM_P2
2021/09/24 00:00:07;;;;;;;5.47;4.18;;;;;;;15.23;63.19;97493.84;4909110;28;20251;-81
2021/09/24 00:02:32;;;;;;;5.93;4.20;;;;;;;15.28;63.34;97496.44;4891333;28;20226;-81
2021/09/24 00:04:58;;;;;;;6.10;3.95;;;;;;;15.30;63.04;97489.13;4909056;28;20651;-81
2021/09/24 00:07:23;;;;;;;5.28;4.22;;;;;;;15.30;63.07;97489.13;4900023;28;20668;-80
2021/09/24 00:09:49;;;;;;;6.65;4.63;;;;;;;15.31;63.47;97487.28;4917271;28;20653;-81
2021/09/24 00:12:14;;;;;;;5.72;4.38;;;;;;;15.35;63.14;97485.69;4937872;28;20210;-81
2021/09/24 00:14:40;;;;;;;6.97;4.95;;;;;;;15.37;63.45;97488.84;4885148;28;20183;-81
2021/09/24 00:17:05;;;;;;;7.95;4.60;;;;;;;15.40;62.71;97493.53;4904319;28;20222;-81
2021/09/24 00:19:31;;;;;;;6.85;4.70;;;;;;;15.40;62.80;97488.28;4872747;28;20326;-81
2021/09/24 00:21:56;;;;;;;7.65;4.55;;;;;;;15.47;62.81;97491.44;4902965;28;20099;-81
2021/09/24 00:24:21;;;;;;;5.65;4.40;;;;;;;15.48;62.87;97479.09;4899610;28;20290;-80
2021/09/24 00:26:47;;;;;;;8.77;4.88;;;;;;;15.46;62.16;97479.34;4876201;28;20314;-81
2021/09/24 00:29:12;;;;;;;4.82;4.10;;;;;;;15.47;62.13;97488.00;4878203;28;20532;-81
2021/09/24 00:31:37;;;;;;;5.93;4.22;;;;;;;15.48;62.24;97485.13;4890584;28;20218;-81
2021/09/24 00:34:03;;;;;;;6.28;4.40;;;;;;;15.43;62.18;97481.72;4900775;28;20278;-81
2021/09/24 00:36:28;;;;;;;6.25;5.20;;;;;;;15.38;62.38;97484.38;4901813;28;20211;-81
2021/09/24 00:38:53;;;;;;;4.90;4.00;;;;;;;15.40;61.96;97488.28;4887933;28;20278;-81
2021/09/24 00:41:19;;;;;;;6.90;4.30;;;;;;;15.43;62.20;97493.00;4886751;28;20292;-81
2021/09/24 00:43:47;;;;;;;7.00;4.55;;;;;;;15.33;62.35;97493.81;4890374;28;20246;-81
2021/09/24 00:46:13;;;;;;;5.53;4.68;;;;;;;15.41;63.18;97484.63;4885800;28;20203;-81
2021/09/24 00:48:38;;;;;;;6.47;4.72;;;;;;;15.40;63.18;97477.78;4883670;28;20191;-80
2021/09/24 00:51:04;;;;;;;7.50;4.57;;;;;;;15.47;63.37;97491.44;4880719;28;20273;-81
2021/09/24 00:53:30;;;;;;;6.60;5.20;;;;;;;15.52;63.21;97491.41;4889030;28;20337;-81
2021/09/24 00:55:56;;;;;;;7.30;5.05;;;;;;;15.61;63.22;97488.22;4873963;28;20195;-81
2021/09/24 00:58:22;;;;;;;6.35;4.60;;;;;;;15.65;63.45;97486.63;4872165;28;20717;-80
2021/09/24 01:00:47;;;;;;;6.07;4.13;;;;;;;15.64;62.96;97487.69;4896966;28;20242;-80
2021/09/24 01:03:13;;;;;;;6.85;4.68;;;;;;;15.63;62.59;97492.16;4908510;28;20283;-80
2021/09/24 01:05:39;;;;;;;5.55;4.20;;;;;;;15.66;62.40;97488.19;4918733;28;20278;-80
2021/09/24 01:08:05;;;;;;;4.65;3.65;;;;;;;15.69;62.17;97490.28;4908919;28;20854;-80
2021/09/24 01:10:30;;;;;;;6.68;4.80;;;;;;;15.66;62.29;97485.56;4921191;28;20214;-80
2021/09/24 01:12:56;;;;;;;5.40;3.67;;;;;;;15.63;62.22;97476.41;4880972;28;20163;-81
2021/09/24 01:15:21;;;;;;;5.75;4.03;;;;;;;15.67;62.33;97481.91;4882193;28;20095;-81
2021/09/24 01:17:47;;;;;;;5.35;3.92;;;;;;;15.70;62.45;97481.38;4898897;28;20538;-80
2021/09/24 01:20:16;;;;;;;6.65;4.10;;;;;;;15.69;62.42;97479.78;4877748;28;20168;-81
2021/09/24 01:22:42;;;;;;;5.80;4.07;;;;;;;15.77;62.40;97463.50;4922926;28;20190;-80
2021/09/24 01:25:11;;;;;;;5.45;3.88;;;;;;;15.70;62.56;97466.41;4898890;28;20180;-80
2021/09/24 01:27:37;;;;;;;5.57;4.35;;;;;;;15.85;62.40;97462.94;4874333;28;20648;-80
2021/09/24 01:30:05;;;;;;;5.53;4.32;;;;;;;15.79;62.36;97458.00;4900953;28;20199;-81
2021/09/24 01:32:30;;;;;;;5.07;4.15;;;;;;;15.87;62.39;97463.44;4899105;28;20167;-80
2021/09/24 01:34:59;;;;;;;6.07;4.25;;;;;;;15.80;62.01;97459.53;4877408;28;20198;-81
2021/09/24 01:37:24;;;;;;;5.70;4.03;;;;;;;15.94;62.34;97462.34;4906525;28;20229;-80
2021/09/24 01:39:49;;;;;;;4.97;4.15;;;;;;;15.93;62.60;97458.16;4907373;28;20206;-81
2021/09/24 01:42:15;;;;;;;4.72;3.90;;;;;;;15.98;62.62;97463.41;4906270;28;20320;-80
2021/09/24 01:44:40;;;;;;;6.95;3.97;;;;;;;15.97;62.24;97460.00;4898819;28;20175;-81
2021/09/24 01:47:06;;;;;;;4.88;3.88;;;;;;;15.95;62.47;97456.06;4926564;28;20584;-81
2021/09/24 01:49:31;;;;;;;5.65;4.65;;;;;;;16.02;62.84;97467.03;4893366;28;20167;-81
2021/09/24 01:51:56;;;;;;;7.43;5.43;;;;;;;16.02;63.01;97465.22;4927312;28;20448;-81
2021/09/24 01:54:22;;;;;;;6.80;4.53;;;;;;;16.03;62.84;97458.09;4895361;28;20210;-81
2021/09/24 01:56:47;;;;;;;6.35;4.28;;;;;;;16.04;62.37;97462.28;4896082;28;20276;-81
2021/09/24 01:59:13;;;;;;;4.60;4.10;;;;;;;16.02;62.48;97464.41;4903562;28;20245;-81
2021/09/24 02:01:38;;;;;;;6.20;4.30;;;;;;;15.99;62.23;97457.88;4911511;28;20211;-80
2021/09/24 02:04:04;;;;;;;5.80;3.88;;;;;;;15.98;62.00;97460.75;4922087;28;20348;-81
2021/09/24 02:06:29;;;;;;;5.00;4.18;;;;;;;15.93;61.64;97458.16;4907911;28;20241;-81
2021/09/24 02:08:55;;;;;;;5.40;4.10;;;;;;;15.93;61.87;97452.91;4891297;28;20265;-80
2021/09/24 02:11:20;;;;;;;4.28;3.55;;;;;;;15.94;62.16;97454.47;4876284;28;20576;-80
2021/09/24 02:13:46;;;;;;;5.72;3.85;;;;;;;15.99;62.30;97452.63;4876635;28;20238;-81
2021/09/24 02:16:12;;;;;;;5.43;4.13;;;;;;;15.99;62.12;97451.81;4924855;28;20242;-80
2021/09/24 02:18:38;;;;;;;7.03;4.03;;;;;;;16.01;62.22;97447.88;4905906;28;20276;-80
2021/09/24 02:21:03;;;;;;;6.68;4.45;;;;;;;16.09;62.17;97442.03;4929687;28;20175;-80
2021/09/24 02:23:29;;;;;;;5.50;4.60;;;;;;;16.20;61.62;97441.97;4891530;28;20252;-80
2021/09/24 02:25:54;;;;;;;6.18;4.45;;;;;;;16.24;61.61;97446.38;4895562;28;20279;-80
2021/09/24 02:28:20;;;;;;;6.30;4.90;;;;;;;16.27;61.44;97445.84;4895056;28;20253;-80
2021/09/24 02:30:45;;;;;;;6.00;4.53;;;;;;;16.31;61.40;97446.09;4876438;28;20171;-80
2021/09/24 02:33:11;;;;;;;6.45;4.40;;;;;;;16.31;61.20;97440.06;4898718;28;20196;-80
2021/09/24 02:35:37;;;;;;;6.68;5.53;;;;;;;16.31;61.14;97438.19;4873867;28;20276;-80
2021/09/24 02:38:03;;;;;;;5.53;4.50;;;;;;;16.34;61.01;97437.66;4897117;28;20229;-81
2021/09/24 02:40:29;;;;;;;5.53;4.80;;;;;;;16.40;60.86;97430.50;4894022;28;20222;-80
2021/09/24 02:42:54;;;;;;;7.97;5.20;;;;;;;16.41;60.67;97434.72;4928883;28;20209;-80
2021/09/24 02:45:20;;;;;;;6.43;4.30;;;;;;;16.44;60.42;97434.94;4915997;28;20281;-81
2021/09/24 02:47:45;;;;;;;6.38;4.40;;;;;;;16.39;60.41;97437.63;4895336;28;20354;-80
2021/09/24 02:50:11;;;;;;;5.80;4.03;;;;;;;16.27;60.85;97432.72;4893901;28;20253;-80
2021/09/24 02:52:37;;;;;;;5.45;4.30;;;;;;;16.12;60.77;97424.94;4901159;28;20643;-80
2021/09/24 02:55:05;;;;;;;7.13;4.93;;;;;;;15.97;61.27;97433.72;4920588;28;20325;-80
2021/09/24 02:57:30;;;;;;;6.97;4.68;;;;;;;15.90;61.59;97434.03;4903534;28;20206;-80
2021/09/24 02:59:55;;;;;;;5.97;4.60;;;;;;;15.79;61.65;97429.09;4888560;28;20163;-80
2021/09/24 03:02:21;;;;;;;7.53;5.25;;;;;;;15.72;61.98;97427.53;4908994;28;20171;-81
2021/09/24 03:04:46;;;;;;;5.80;4.35;;;;;;;15.73;61.94;97426.47;4923462;28;20193;-81
2021/09/24 03:07:12;;;;;;;7.75;4.75;;;;;;;15.67;62.43;97421.53;4882733;28;20179;-81
2021/09/24 03:09:37;;;;;;;7.38;5.47;;;;;;;15.64;62.43;97422.06;4894026;28;20213;-80
2021/09/24 03:12:06;;;;;;;7.28;4.88;;;;;;;15.53;62.78;97423.97;4907230;28;20198;-80
2021/09/24 03:14:31;;;;;;;7.43;4.90;;;;;;;15.55;62.55;97425.25;4891980;28;20259;-81
2021/09/24 03:16:57;;;;;;;6.32;4.80;;;;;;;15.48;62.43;97427.38;4925560;28;20702;-81
2021/09/24 03:19:22;;;;;;;8.52;5.28;;;;;;;15.45;62.73;97440.25;4910453;28;20242;-80
2021/09/24 03:21:49;;;;;;;7.80;4.68;;;;;;;15.49;62.53;97428.16;4913000;28;20678;-81
2021/09/24 03:24:14;;;;;;;8.35;5.10;;;;;;;15.47;62.68;97440.78;4904932;28;20146;-81
2021/09/24 03:26:40;;;;;;;7.03;4.95;;;;;;;15.44;62.81;97438.69;4909200;28;20072;-81
2021/09/24 03:29:05;;;;;;;6.43;5.18;;;;;;;15.47;62.90;97436.31;4905981;28;20118;-81
2021/09/24 03:31:30;;;;;;;6.13;5.22;;;;;;;15.46;62.96;97434.75;4908799;28;20226;-81
2021/09/24 03:33:56;;;;;;;7.68;5.70;;;;;;;15.47;62.83;97431.06;4910116;28;20178;-80
2021/09/24 03:36:21;;;;;;;7.47;5.40;;;;;;;15.46;62.82;97432.13;4910739;28;20262;-81
2021/09/24 03:38:46;;;;;;;7.38;5.80;;;;;;;15.43;63.05;97430.03;4915506;28;20210;-81
2021/09/24 03:41:12;;;;;;;7.65;5.05;;;;;;;15.44;62.92;97436.06;4889497;28;20219;-81
2021/09/24 03:43:37;;;;;;;7.78;5.50;;;;;;;15.41;63.15;97437.38;4909068;28;20215;-81
2021/09/24 03:46:03;;;;;;;6.47;5.47;;;;;;;15.33;62.81;97430.06;4883079;28;20289;-81
2021/09/24 03:48:29;;;;;;;7.22;5.35;;;;;;;15.28;63.04;97433.50;4891405;28;20180;-81
2021/09/24 03:50:54;;;;;;;6.07;5.20;;;;;;;15.27;63.14;97433.78;4876488;28;20255;-81
2021/09/24 03:53:20;;;;;;;7.53;4.95;;;;;;;15.21;63.26;97440.88;4905435;28;20167;-81
2021/09/24 03:55:45;;;;;;;6.53;4.82;;;;;;;15.19;62.89;97436.94;4894193;28;20175;-81
2021/09/24 03:58:11;;;;;;;7.00;5.50;;;;;;;15.13;63.14;97431.72;4893950;28;20245;-81
2021/09/24 04:00:36;;;;;;;5.70;4.85;;;;;;;15.14;63.29;97430.66;4880085;28;20252;-81
2021/09/24 04:03:01;;;;;;;6.53;4.65;;;;;;;15.16;63.01;97435.63;4893927;28;20252;-81
2021/09/24 04:05:27;;;;;;;5.95;4.97;;;;;;;15.12;63.26;97437.22;4927007;28;20199;-81
2021/09/24 04:07:52;;;;;;;5.95;5.05;;;;;;;15.08;63.44;97436.19;4934931;28;20702;-81
2021/09/24 04:10:17;;;;;;;6.15;5.03;;;;;;;15.11;63.29;97433.03;4917714;28;20214;-81
2021/09/24 04:12:43;;;;;;;8.98;5.93;;;;;;;15.06;63.53;97446.16;4913961;28;20208;-81
2021/09/24 04:15:09;;;;;;;7.55;5.78;;;;;;;15.07;63.38;97445.88;4913241;28;20261;-81
2021/09/24 04:17:34;;;;;;;7.25;5.38;;;;;;;15.07;63.41;97445.13;4904520;28;20224;-82
2021/09/24 04:19:59;;;;;;;7.22;5.47;;;;;;;15.07;63.62;97448.50;4869109;28;20573;-82
2021/09/24 04:22:25;;;;;;;7.65;5.97;;;;;;;15.03;63.48;97441.44;4902986;28;20676;-81
2021/09/24 04:24:50;;;;;;;8.07;5.75;;;;;;;15.10;63.36;97447.97;4890678;28;20257;-81
2021/09/24 04:27:16;;;;;;;7.95;5.93;;;;;;;15.13;63.29;97442.22;4905064;28;20219;-81
2021/09/24 04:29:41;;;;;;;10.13;5.82;;;;;;;15.13;63.14;97447.47;4879663;28;20176;-81
2021/09/24 04:32:07;;;;;;;8.32;5.60;;;;;;;15.13;63.27;97441.41;4885641;28;20282;-82
2021/09/24 04:34:32;;;;;;;9.35;5.68;;;;;;;15.11;63.15;97443.50;4905602;28;20211;-82
2021/09/24 04:36:57;;;;;;;7.72;5.63;;;;;;;15.05;63.37;97439.34;4896348;28;20223;-81
2021/09/24 04:39:23;;;;;;;10.07;5.68;;;;;;;15.01;63.49;97427.81;4894074;28;20265;-81
2021/09/24 04:41:48;;;;;;;8.25;5.97;;;;;;;15.03;63.54;97439.63;4924596;28;20198;-81
2021/09/24 04:44:14;;;;;;;8.55;5.90;;;;;;;15.02;63.51;97438.03;4905260;28;20246;-81
2021/09/24 04:46:39;;;;;;;8.30;5.40;;;;;;;15.07;63.45;97438.03;4893128;28;20276;-81
2021/09/24 04:49:04;;;;;;;8.05;5.90;;;;;;;15.06;63.37;97431.22;4923967;28;20216;-81
2021/09/24 04:51:30;;;;;;;8.07;5.70;;;;;;;15.03;63.45;97431.75;4924310;28;20249;-81
2021/09/24 04:53:55;;;;;;;8.70;5.72;;;;;;;14.98;63.34;97429.16;4888062;28;20214;-81
2021/09/24 04:56:21;;;;;;;8.98;6.03;;;;;;;14.96;63.40;97436.50;4886794;28;20194;-81
2021/09/24 04:58:46;;;;;;;8.43;5.68;;;;;;;14.91;63.51;97432.03;4890686;28;20172;-81
2021/09/24 05:01:12;;;;;;;9.18;5.50;;;;;;;14.88;63.94;97439.66;4919908;28;20197;-81
2021/09/24 05:03:37;;;;;;;6.93;5.53;;;;;;;14.87;63.74;97441.47;4902817;28;20913;-81
2021/09/24 05:06:02;;;;;;;9.00;5.72;;;;;;;14.81;64.03;97449.63;4907827;28;20755;-81
2021/09/24 05:08:28;;;;;;;7.00;5.38;;;;;;;14.69;63.92;97442.81;4918216;28;20644;-81
2021/09/24 05:10:53;;;;;;;8.70;5.45;;;;;;;14.66;64.10;97443.34;4892367;28;20284;-80
2021/09/24 05:13:18;;;;;;;9.32;6.35;;;;;;;14.62;64.14;97450.16;4898002;28;20227;-82
2021/09/24 05:15:44;;;;;;;9.00;6.25;;;;;;;14.57;63.87;97443.06;4906457;28;20207;-82
2021/09/24 05:18:09;;;;;;;9.07;5.35;;;;;;;14.52;64.23;97443.06;4888463;28;20202;-82
2021/09/24 05:20:35;;;;;;;7.05;5.47;;;;;;;14.49;64.07;97448.03;4883731;28;20172;-82
2021/09/24 05:23:00;;;;;;;7.70;5.80;;;;;;;14.48;64.24;97441.22;4860834;28;20159;-82
2021/09/24 05:25:25;;;;;;;8.88;5.78;;;;;;;14.46;64.26;97449.34;4879656;28;20738;-82
2021/09/24 05:27:51;;;;;;;8.02;5.55;;;;;;;14.43;64.35;97439.41;4903019;28;20290;-83
2021/09/24 05:30:17;;;;;;;8.02;5.20;;;;;;;14.37;64.37;97448.31;4910754;28;20288;-82
2021/09/24 05:32:43;;;;;;;8.98;5.95;;;;;;;14.40;64.43;97442.53;4911331;28;20190;-82
2021/09/24 05:35:09;;;;;;;8.25;5.68;;;;;;;14.43;64.52;97445.44;4911086;28;20244;-82
2021/09/24 05:37:34;;;;;;;9.00;5.97;;;;;;;14.47;64.49;97450.16;4903475;28;20167;-82
2021/09/24 05:40:00;;;;;;;7.95;5.60;;;;;;;14.39;64.50;97441.78;4888047;28;20667;-82
2021/09/24 05:42:26;;;;;;;7.85;5.63;;;;;;;14.54;64.37;97445.41;4876171;28;20679;-83
2021/09/24 05:44:51;;;;;;;10.23;6.00;;;;;;;14.52;64.94;97437.81;4896339;28;20288;-83
2021/09/24 05:47:16;;;;;;;9.90;7.03;;;;;;;14.64;64.93;97444.66;4908855;28;20620;-83
2021/09/24 05:49:42;;;;;;;8.43;5.85;;;;;;;14.74;64.66;97442.03;4892593;28;20226;-82
2021/09/24 05:52:07;;;;;;;8.82;5.88;;;;;;;14.81;64.63;97436.53;4913420;28;20198;-82
2021/09/24 05:54:33;;;;;;;9.30;6.82;;;;;;;14.90;64.60;97440.94;4879515;28;20214;-83
2021/09/24 05:56:58;;;;;;;10.10;6.72;;;;;;;14.98;64.39;97443.03;4910729;28;20455;-82
2021/09/24 05:59:24;;;;;;;9.32;6.80;;;;;;;14.96;64.40;97447.75;4903777;28;20186;-82
2021/09/24 06:01:50;;;;;;;8.23;5.88;;;;;;;15.03;64.31;97442.25;4910088;28;20205;-83
2021/09/24 06:04:16;;;;;;;9.88;6.35;;;;;;;15.07;63.90;97442.50;4887816;28;20303;-81
2021/09/24 06:06:42;;;;;;;7.45;5.25;;;;;;;15.08;64.21;97444.84;4890327;28;20456;-82
2021/09/24 06:09:08;;;;;;;8.55;6.28;;;;;;;15.14;63.95;97449.00;4868785;28;20169;-80
2021/09/24 06:11:33;;;;;;;8.32;5.90;;;;;;;15.26;63.95;97450.56;4906622;28;20228;-80
2021/09/24 06:13:59;;;;;;;8.30;6.43;;;;;;;15.35;63.42;97448.94;4884673;28;20665;-82
2021/09/24 06:16:24;;;;;;;9.80;5.47;;;;;;;15.43;63.48;97445.78;4904775;28;20293;-80
2021/09/24 06:18:51;;;;;;;8.90;6.90;;;;;;;15.51;63.26;97457.56;4909846;28;20443;-81
2021/09/24 06:21:18;;;;;;;8.93;5.68;;;;;;;15.57;63.05;97453.06;4928398;28;20265;-80
2021/09/24 06:23:44;;;;;;;7.80;5.82;;;;;;;15.69;62.96;97456.94;4909204;28;20281;-80
2021/09/24 06:26:10;;;;;;;8.20;6.47;;;;;;;15.72;62.82;97447.75;4908159;28;20751;-81
2021/09/24 06:28:35;;;;;;;7.72;5.60;;;;;;;15.84;62.99;97456.09;4880350;28;20358;-80
2021/09/24 06:31:01;;;;;;;8.52;6.28;;;;;;;15.97;62.64;97453.94;4891201;28;20285;-80
2021/09/24 06:33:26;;;;;;;8.98;5.70;;;;;;;16.01;62.35;97449.72;4891742;28;20199;-81
2021/09/24 06:35:52;;;;;;;8.10;5.57;;;;;;;16.08;62.06;97452.81;4919322;28;20288;-80
2021/09/24 06:38:17;;;;;;;8.52;5.50;;;;;;;16.18;61.85;97455.38;4923414;28;20170;-82
2021/09/24 06:40:43;;;;;;;7.22;5.50;;;;;;;16.22;61.87;97466.91;4901072;28;20286;-80
2021/09/24 06:43:09;;;;;;;9.10;5.68;;;;;;;16.33;61.56;97464.19;4913604;28;20214;-81
2021/09/24 06:45:35;;;;;;;6.75;5.38;;;;;;;16.43;61.36;97454.41;4903993;28;20272;-80
2021/09/24 06:48:01;;;;;;;8.32;5.80;;;;;;;16.44;61.92;97463.06;4920471;28;20171;-80
2021/09/24 06:50:26;;;;;;;8.82;5.50;;;;;;;16.54;61.32;97465.63;4900031;28;20288;-80
2021/09/24 06:52:52;;;;;;;8.23;5.32;;;;;;;16.66;60.92;97466.03;4906426;28;20189;-80
2021/09/24 06:55:21;;;;;;;6.10;4.90;;;;;;;16.78;60.67;97468.31;4901233;28;20276;-80
2021/09/24 06:57:50;;;;;;;7.93;5.32;;;;;;;16.84;60.67;97467.25;4908282;28;20183;-80
2021/09/24 07:00:15;;;;;;;7.28;5.45;;;;;;;16.98;60.25;97464.75;4909490;28;20799;-81
2021/09/24 07:02:41;;;;;;;6.25;5.00;;;;;;;17.12;59.67;97461.44;4939753;28;20472;-80
2021/09/24 07:05:07;;;;;;;8.48;6.10;;;;;;;17.19;59.41;97472.44;4901548;28;20260;-82
2021/09/24 07:07:33;;;;;;;8.48;6.13;;;;;;;17.19;59.32;97473.19;4905652;28;20171;-81
2021/09/24 07:09:58;;;;;;;7.82;5.65;;;;;;;17.46;58.81;97465.78;4924969;28;20287;-80
2021/09/24 07:12:24;;;;;;;6.72;4.95;;;;;;;17.67;58.19;97475.03;4914269;28;20280;-79
2021/09/24 07:14:50;;;;;;;6.30;4.80;;;;;;;17.79;58.33;97470.13;4905959;28;20248;-79
2021/09/24 07:17:15;;;;;;;5.93;4.80;;;;;;;17.90;57.68;97470.78;4880613;28;20289;-80
2021/09/24 07:19:41;;;;;;;7.68;5.10;;;;;;;18.13;56.80;97471.81;4891312;28;20285;-80
2021/09/24 07:22:07;;;;;;;6.00;4.32;;;;;;;18.25;57.00;97467.94;4908670;28;20752;-79
2021/09/24 07:24:33;;;;;;;7.13;5.22;;;;;;;18.50;56.08;97464.13;4916465;28;20178;-79
2021/09/24 07:26:59;;;;;;;6.45;4.85;;;;;;;18.58;55.72;97465.31;4926920;28;20660;-80
2021/09/24 07:29:25;;;;;;;7.05;5.05;;;;;;;18.68;55.53;97465.94;4903918;28;20241;-79
2021/09/24 07:31:50;;;;;;;7.38;5.32;;;;;;;18.83;55.44;97459.66;4889442;28;20648;-79
2021/09/24 07:34:15;;;;;;;6.97;4.85;;;;;;;18.97;54.59;97464.16;4890322;28;20297;-79
2021/09/24 07:36:41;;;;;;;6.15;4.93;;;;;;;19.09;54.63;97467.09;4901016;28;20207;-79
2021/09/24 07:39:06;;;;;;;6.57;4.45;;;;;;;19.33;53.89;97466.13;4911922;28;20320;-79
2021/09/24 07:41:32;;;;;;;9.63;4.97;;;;;;;19.49;52.90;97464.75;4905015;28;20223;-79
2021/09/24 07:43:59;;;;;;;6.30;4.47;;;;;;;19.69;52.97;97468.03;4916790;28;20399;-79
2021/09/24 07:46:25;;;;;;;6.90;4.63;;;;;;;19.79;52.40;97462.56;4896266;28;20714;-79
2021/09/24 07:48:51;;;;;;;5.47;4.63;;;;;;;19.68;53.23;97471.78;4879865;28;20586;-79
2021/09/24 07:51:19;;;;;;;5.20;4.70;;;;;;;19.77;52.71;97475.31;4905205;28;20191;-79
2021/09/24 07:53:44;;;;;;;8.02;5.28;;;;;;;19.97;52.52;97485.44;4900499;28;20246;-79
2021/09/24 07:56:10;;;;;;;6.32;4.65;;;;;;;20.03;52.52;97478.16;4895995;28;20289;-79
2021/09/24 07:58:38;;;;;;;5.60;4.72;;;;;;;20.21;51.57;97481.75;4894241;28;20122;-79
2021/09/24 08:01:03;;;;;;;5.82;4.65;;;;;;;20.24;51.94;97475.88;4900689;28;20170;-79
2021/09/24 08:03:28;;;;;;;5.28;3.90;;;;;;;20.37;51.79;97485.63;4880190;28;20654;-80
2021/09/24 08:05:54;;;;;;;6.75;5.18;;;;;;;20.57;51.34;97486.22;4912473;28;20679;-79
2021/09/24 08:08:19;;;;;;;5.97;4.70;;;;;;;20.56;51.82;97484.63;4907448;28;20194;-79
2021/09/24 08:10:45;;;;;;;5.93;4.30;;;;;;;20.73;51.13;97482.16;4923796;28;20303;-80
2021/09/24 08:13:10;;;;;;;6.43;5.05;;;;;;;20.91;51.01;97479.59;4926225;28;20701;-79
2021/09/24 08:15:41;;;;;;;6.00;4.78;;;;;;;20.99;50.70;97486.78;4893118;28;20189;-79
2021/09/24 08:18:07;;;;;;;6.03;4.53;;;;;;;21.28;50.01;97488.94;4929635;28;20203;-79
2021/09/24 08:20:33;;;;;;;5.03;4.53;;;;;;;21.33;50.44;97488.78;4903835;28;20702;-80
2021/09/24 08:22:58;;;;;;;5.50;4.57;;;;;;;21.30;51.36;97488.59;4891744;28;20406;-79
2021/09/24 08:25:24;;;;;;;6.30;5.28;;;;;;;21.69;49.58;97490.47;4889996;28;20180;-79
2021/09/24 08:27:49;;;;;;;5.10;4.45;;;;;;;21.79;50.28;97496.56;4910378;28;20291;-80
2021/09/24 08:30:16;;;;;;;5.32;4.20;;;;;;;22.11;48.47;97483.97;4894839;28;20183;-79
2021/09/24 08:32:42;;;;;;;6.95;4.60;;;;;;;22.32;48.53;97486.81;4912329;28;20199;-80
2021/09/24 08:35:10;;;;;;;6.70;4.75;;;;;;;22.38;47.90;97482.88;4908885;28;20316;-80
2021/09/24 08:37:37;;;;;;;6.25;4.97;;;;;;;22.46;48.40;97476.00;4901006;28;20211;-80
2021/09/24 08:40:04;;;;;;;5.70;4.30;;;;;;;22.35;48.16;97484.28;4912603;28;20588;-79
2021/09/24 08:42:29;;;;;;;4.28;3.88;;;;;;;22.40;48.52;97489.44;4882703;28;20159;-79
2021/09/24 08:44:55;;;;;;;5.75;4.35;;;;;;;22.37;48.58;97479.44;4889476;28;20329;-80
2021/09/24 08:47:20;;;;;;;6.20;4.22;;;;;;;22.13;49.58;97493.16;4918058;28;20639;-79
2021/09/24 08:49:46;;;;;;;4.30;3.72;;;;;;;22.13;49.88;97490.50;4902926;28;20334;-79
2021/09/24 08:52:12;;;;;;;4.43;4.03;;;;;;;22.36;49.49;97490.38;4910968;28;20333;-79
2021/09/24 08:54:38;;;;;;;4.43;4.00;;;;;;;22.63;48.62;97487.38;4911100;28;20203;-80
2021/09/24 08:57:04;;;;;;;5.90;3.85;;;;;;;22.62;48.62;97485.81;4885282;28;20249;-80
2021/09/24 08:59:30;;;;;;;4.55;3.90;;;;;;;22.60;49.14;97484.56;4898640;28;20352;-80
2021/09/24 09:02:00;;;;;;;6.07;3.67;;;;;;;22.57;47.91;97486.00;4905199;28;20404;-80
2021/09/24 09:04:37;;;;;;;3.95;3.28;;;;;;;22.30;49.28;97489.75;4921061;28;20664;-79
2021/09/24 09:07:10;;;;;;;5.18;3.97;;;;;;;22.43;49.30;97486.16;4897063;28;20672;-79
2021/09/24 09:09:38;;;;;;;4.57;3.85;;;;;;;22.62;48.99;97485.81;4905314;28;20675;-80
2021/09/24 09:12:19;;;;;;;5.22;3.80;;;;;;;22.50;49.29;97483.03;4907348;28;20183;-80
2021/09/24 09:15:01;;;;;;;6.20;4.13;;;;;;;22.36;48.65;97490.38;4900110;28;20262;-79
2021/09/24 09:17:29;;;;;;;6.28;5.03;;;;;;;22.51;48.85;97489.13;4921031;28;20183;-81
2021/09/24 09:20:09;;;;;;;5.18;4.38;;;;;;;22.59;49.84;97486.44;4900723;28;20296;-80
2021/09/24 09:22:35;;;;;;;5.00;4.18;;;;;;;22.79;48.15;97478.91;4919667;28;20657;-81
2021/09/24 09:25:00;;;;;;;5.43;4.28;;;;;;;23.31;47.16;97477.97;4905630;28;20168;-80
2021/09/24 09:27:27;;;;;;;6.47;3.72;;;;;;;23.45;46.86;97477.75;4932727;28;20362;-80
2021/09/24 09:30:04;;;;;;;4.90;4.40;;;;;;;23.22;47.50;97483.34;4911386;28;20654;-80
2021/09/24 09:32:29;;;;;;;5.32;4.00;;;;;;;23.50;46.31;97480.22;4902079;28;20723;-80
2021/09/24 09:34:58;;;;;;;4.10;3.55;;;;;;;23.52;47.17;97486.75;4882264;28;20194;-80
2021/09/24 09:37:24;;;;;;;5.57;4.10;;;;;;;23.48;46.84;97493.84;4917164;28;20211;-81
2021/09/24 09:40:17;;;;;;;6.45;4.60;;;;;;;23.25;47.58;97498.63;4892320;28;20194;-80
2021/09/24 09:42:44;;;;;;;7.57;4.13;;;;;;;23.59;47.19;97496.13;4900248;28;20561;-79
2021/09/24 09:45:12;;;;;;;4.63;4.22;;;;;;;23.72;46.63;97493.22;4883932;28;20250;-80
2021/09/24 09:47:40;;;;;;;5.50;4.10;;;;;;;23.52;46.91;97494.72;4884548;28;20329;-81
2021/09/24 09:50:13;;;;;;;4.47;3.90;;;;;;;23.84;47.13;97491.78;4889548;28;20632;-81
2021/09/24 09:53:07;;;;;;;5.50;4.25;;;;;;;23.86;46.15;97500.97;4886354;28;20290;-80
2021/09/24 09:55:36;;;;;;;4.93;3.90;;;;;;;24.18;45.63;97489.94;4910049;28;20316;-81
2021/09/24 09:58:09;;;;;;;5.60;4.07;;;;;;;24.01;45.59;97494.31;4897917;28;20145;-80
2021/09/24 10:00:35;;;;;;;4.70;3.55;;;;;;;24.33;45.33;97489.34;4917523;28;20776;-80
2021/09/24 10:03:10;;;;;;;7.82;4.30;;;;;;;24.15;45.37;97485.31;4915744;28;20208;-81
2021/09/24 10:05:43;;;;;;;7.70;4.30;;;;;;;24.23;45.08;97484.44;4871072;28;20186;-81
2021/09/24 10:08:28;;;;;;;6.72;4.43;;;;;;;24.37;44.22;97487.59;4934456;28;20325;-80
2021/09/24 10:11:05;;;;;;;6.65;4.00;;;;;;;24.34;45.01;97480.28;4910354;28;20700;-80
2021/09/24 10:13:37;;;;;;;4.82;3.80;;;;;;;24.70;45.72;97483.41;4916406;28;20203;-80
2021/09/24 10:16:04;;;;;;;4.13;3.63;;;;;;;24.31;46.38;97481.69;4925863;28;20265;-80
2021/09/24 10:18:31;;;;;;;4.75;3.55;;;;;;;24.62;44.05;97472.50;4893492;28;20163;-81
2021/09/24 10:20:57;;;;;;;4.22;3.83;;;;;;;24.63;44.96;97476.72;4914753;28;20202;-81
2021/09/24 10:23:22;;;;;;;4.57;3.70;;;;;;;24.64;44.99;97482.81;4913306;28;20712;-81
2021/09/24 10:25:55;;;;;;;4.22;3.80;;;;;;;25.03;44.26;97478.03;4882883;28;20199;-81
2021/09/24 10:28:21;;;;;;;7.10;4.13;;;;;;;25.09;43.85;97474.03;4928809;28;20289;-81
2021/09/24 10:30:46;;;;;;;6.13;3.97;;;;;;;24.94;43.84;97469.38;4923668;28;20697;-81
2021/09/24 10:33:13;;;;;;;4.05;3.65;;;;;;;25.00;43.55;97473.34;4904969;28;20275;-81
2021/09/24 10:35:51;;;;;;;5.57;3.88;;;;;;;24.44;44.67;97479.09;4890226;28;20633;-80
2021/09/24 10:38:18;;;;;;;4.82;4.13;;;;;;;24.37;43.93;97478.81;4909538;28;20329;-81
2021/09/24 10:41:02;;;;;;;4.65;3.47;;;;;;;24.02;45.49;97482.56;4908135;28;20168;-80
2021/09/24 10:43:59;;;;;;;5.43;3.88;;;;;;;23.89;44.76;97486.28;4896927;28;20276;-81
2021/09/24 10:46:24;;;;;;;6.10;4.45;;;;;;;23.92;45.29;97488.25;4896622;28;20170;-80
2021/09/24 10:49:26;;;;;;;6.63;3.67;;;;;;;23.45;47.20;97493.69;4917932;28;20625;-80
2021/09/24 10:51:57;;;;;;;5.90;4.22;;;;;;;23.95;46.84;97486.84;4903206;28;20305;-80
2021/09/24 10:54:25;;;;;;;4.65;4.00;;;;;;;24.47;44.12;97483.75;4923123;28;20209;-80
2021/09/24 10:57:00;;;;;;;4.95;3.70;;;;;;;24.31;44.44;97475.59;4889778;28;20756;-81
2021/09/24 10:59:33;;;;;;;3.92;3.50;;;;;;;24.71;44.69;97477.75;4906167;28;20290;-83
2021/09/24 11:02:00;;;;;;;5.88;4.05;;;;;;;25.04;43.74;97468.94;4903811;28;20305;-80
2021/09/24 11:04:42;;;;;;;5.85;4.70;;;;;;;25.39;41.94;97463.94;4900220;28;20279;-81
2021/09/24 11:07:08;;;;;;;4.20;3.80;;;;;;;25.57;42.46;97463.72;4886145;28;20273;-81
2021/09/24 11:09:50;;;;;;;5.68;4.13;;;;;;;25.36;41.38;97461.97;4893040;28;20227;-81
2021/09/24 11:12:15;;;;;;;4.28;3.88;;;;;;;26.03;40.74;97463.53;4874669;28;20355;-81
2021/09/24 11:14:42;;;;;;;4.38;3.75;;;;;;;26.33;40.50;97456.72;4915603;28;20358;-81
2021/09/24 11:17:10;;;;;;;6.43;4.57;;;;;;;26.44;40.34;97462.38;4913380;28;20341;-81
2021/09/24 11:19:37;;;;;;;4.72;3.75;;;;;;;26.22;39.73;97458.34;4888563;28;20296;-81
2021/09/24 11:22:03;;;;;;;4.25;3.75;;;;;;;26.47;40.54;97456.31;4910002;28;20198;-81
2021/09/24 11:24:37;;;;;;;3.70;3.40;;;;;;;26.57;39.07;97454.28;4905654;28;20270;-80
2021/09/24 11:27:05;;;;;;;3.92;3.53;;;;;;;27.08;38.10;97449.84;4889547;28;20257;-80
2021/09/24 11:29:31;;;;;;;3.50;3.20;;;;;;;27.37;37.50;97457.78;4911229;28;20179;-80
2021/09/24 11:31:56;;;;;;;5.03;3.80;;;;;;;27.21;37.53;97449.75;4888081;28;20274;-81